Wetterdaten: Woche 29.02.16 - 06.03.16 (KW9)
Datum Zeit Temp. Aussen Temp. o. S. +5cm Feuchte Auss BlattFeu 1 Luftdruck Regen Sonnenschein Regendauer Solar Windben Empfang
29.02.2016 00:00 0,5 C 0,3 C -0,7 C 78 % 0 lf 1020,7 hPa 0,0 l/m 0,00 h 0,00 h 0 W/m 14,3 km/h (3 Bft) 96,03 %
29.02.2016 01:00 0,1 C 0,0 C -1,1 C 81 % 0 lf 1020,7 hPa 0,0 l/m 0,00 h 0,00 h 0 W/m 13,7 km/h (3 Bft) 95,70 %
29.02.2016 02:00 -0,1 C -0,4 C -1,4 C 84 % 0 lf 1021,0 hPa 0,0 l/m 0,00 h 0,00 h 0 W/m 13,6 km/h (3 Bft) 94,82 %
29.02.2016 03:00 -0,4 C -0,9 C -1,8 C 85 % 0 lf 1021,1 hPa 0,0 l/m 0,00 h 0,00 h 0 W/m 10,2 km/h (2 Bft) 98,46 %
29.02.2016 04:00 -0,9 C -1,7 C -2,2 C 86 % 0 lf 1021,1 hPa 0,0 l/m 0,00 h 0,00 h 0 W/m 8,9 km/h (2 Bft) 96,48 %
29.02.2016 05:00 -1,3 C -2,2 C -2,7 C 88 % 0 lf 1021,3 hPa 0,0 l/m 0,00 h 0,00 h 0 W/m 7,1 km/h (2 Bft) 94,50 %
29.02.2016 06:00 -1,8 C -2,7 C -3,2 C 88 % 0 lf 1021,3 hPa 0,0 l/m 0,00 h 0,00 h 0 W/m 7,1 km/h (2 Bft) 96,23 %
29.02.2016 07:00 -2,0 C -2,6 C -3,3 C 89 % 0 lf 1021,4 hPa 0,0 l/m 0,00 h 0,00 h 17 W/m 7,3 km/h (2 Bft) 95,29 %
29.02.2016 08:00 -1,5 C 0,0 C -1,8 C 90 % 0 lf 1022,0 hPa 0,0 l/m 0,97 h 0,00 h 103 W/m 9,6 km/h (2 Bft) 96,46 %
29.02.2016 09:00 0,4 C 7,4 C 1,1 C 88 % 0 lf 1022,5 hPa 0,0 l/m 0,95 h 0,00 h 256 W/m 15,2 km/h (3 Bft) 94,79 %
29.02.2016 10:00 3,0 C 11,0 C 3,9 C 77 % 0 lf 1022,3 hPa 0,0 l/m 0,98 h 0,00 h 394 W/m 21,0 km/h (4 Bft) 95,65 %
29.02.2016 11:00 5,0 C 12,8 C 6,5 C 68 % 0 lf 1022,4 hPa 0,0 l/m 1,00 h 0,00 h 464 W/m 26,9 km/h (4 Bft) 97,08 %
29.02.2016 12:00 7,2 C 15,3 C 6,6 C 59 % 0 lf 1021,9 hPa 0,0 l/m 1,00 h 0,00 h 514 W/m 29,4 km/h (5 Bft) 94,10 %
29.02.2016 13:00 7,8 C 15,2 C 6,0 C 55 % 0 lf 1021,4 hPa 0,0 l/m 1,00 h 0,00 h 500 W/m 33,3 km/h (5 Bft) 96,37 %
29.02.2016 14:00 7,7 C 14,5 C 5,7 C 55 % 0 lf 1021,0 hPa 0,0 l/m 1,00 h 0,00 h 431 W/m 29,4 km/h (5 Bft) 96,44 %
29.02.2016 15:00 7,1 C 11,7 C 5,2 C 57 % 0 lf 1021,0 hPa 0,0 l/m 1,00 h 0,00 h 313 W/m 31,5 km/h (5 Bft) 97,35 %
29.02.2016 16:00 6,1 C 8,6 C 4,5 C 60 % 0 lf 1021,3 hPa 0,0 l/m 1,00 h 0,00 h 164 W/m 28,2 km/h (4 Bft) 92,60 %
29.02.2016 17:00 5,0 C 5,1 C 3,4 C 63 % 0 lf 1021,9 hPa 0,0 l/m 0,42 h 0,00 h 48 W/m 23,9 km/h (4 Bft) 97,14 %
29.02.2016 18:00 3,8 C 3,3 C 2,1 C 65 % 0 lf 1022,8 hPa 0,0 l/m 0,00 h 0,00 h 9 W/m 15,5 km/h (3 Bft) 97,56 %
29.02.2016 19:00 2,6 C 1,7 C 0,5 C 68 % 0 lf 1023,2 hPa 0,0 l/m 0,00 h 0,00 h 0 W/m 12,1 km/h (2 Bft) 94,89 %
29.02.2016 20:00 1,5 C -0,4 C -1,6 C 70 % 0 lf 1023,4 hPa 0,0 l/m 0,00 h 0,00 h 0 W/m 6,0 km/h (2 Bft) 96,80 %
29.02.2016 21:00 -0,1 C -1,9 C -3,0 C 73 % 0 lf 1023,3 hPa 0,0 l/m 0,00 h 0,00 h 0 W/m 3,7 km/h (1 Bft) 95,30 %
29.02.2016 22:00 -1,3 C -3,1 C -3,7 C 77 % 0 lf 1023,5 hPa 0,0 l/m 0,00 h 0,00 h 0 W/m 0,0 km/h (0 Bft) 93,60 %
29.02.2016 23:00 -2,2 C -3,5 C -4,1 C 81 % 0 lf 1023,2 hPa 0,0 l/m 0,00 h 0,00 h 0 W/m 0,0 km/h (0 Bft) 95,87 %
01.03.2016 00:00 -2,7 C -4,0 C -4,5 C 84 % 1 lf 1023,3 hPa 0,0 l/m 0,00 h 0,00 h 0 W/m 0,0 km/h (0 Bft) 93,66 %
01.03.2016 01:00 -3,2 C -4,4 C -5,0 C 86 % 1 lf 1023,1 hPa 0,0 l/m 0,00 h 0,00 h 0 W/m 0,0 km/h (0 Bft) 97,01 %
01.03.2016 02:00 -3,6 C -4,9 C -5,3 C 88 % 1 lf 1022,9 hPa 0,0 l/m 0,00 h 0,00 h 0 W/m 0,0 km/h (0 Bft) 95,37 %
01.03.2016 03:00 -4,0 C -5,0 C -5,6 C 89 % 1 lf 1022,7 hPa 0,0 l/m 0,00 h 0,00 h 0 W/m 0,0 km/h (0 Bft) 95,22 %
01.03.2016 04:00 -4,4 C -5,1 C -6,1 C 90 % 1 lf 1022,1 hPa 0,0 l/m 0,00 h 0,00 h 0 W/m 0,0 km/h (0 Bft) 95,93 %
01.03.2016 05:00 -4,9 C -5,6 C -6,0 C 91 % 0 lf 1022,0 hPa 0,0 l/m 0,00 h 0,00 h 0 W/m 2,1 km/h (1 Bft) 95,43 %
01.03.2016 06:00 -4,8 C -4,6 C -5,7 C 92 % 0 lf 1021,7 hPa 0,0 l/m 0,00 h 0,00 h 0 W/m 4,2 km/h (1 Bft) 97,01 %
01.03.2016 07:00 -4,5 C -4,1 C -5,3 C 93 % 1 lf 1021,4 hPa 0,0 l/m 0,33 h 0,00 h 23 W/m 3,8 km/h (1 Bft) 97,79 %
01.03.2016 08:00 -3,4 C -1,8 C -3,0 C 94 % 1 lf 1021,2 hPa 0,0 l/m 0,83 h 0,00 h 132 W/m 6,4 km/h (2 Bft) 94,63 %
01.03.2016 09:00 -1,0 C 3,0 C 0,8 C 95 % 11 lf 1020,5 hPa 0,0 l/m 1,00 h 0,00 h 244 W/m 8,8 km/h (2 Bft) 95,62 %
01.03.2016 10:00 1,5 C 5,4 C 2,9 C 86 % 0 lf 1019,5 hPa 0,0 l/m 1,00 h 0,00 h 304 W/m 13,8 km/h (3 Bft) 97,82 %
01.03.2016 11:00 3,1 C 4,6 C 3,2 C 72 % 0 lf 1018,5 hPa 0,0 l/m 0,30 h 0,00 h 220 W/m 19,8 km/h (3 Bft) 94,13 %
01.03.2016 12:00 3,8 C 5,1 C 3,7 C 70 % 0 lf 1017,2 hPa 0,0 l/m 0,00 h 0,00 h 194 W/m 20,3 km/h (4 Bft) 95,78 %
01.03.2016 13:00 4,8 C 6,0 C 4,4 C 67 % 0 lf 1015,6 hPa 0,0 l/m 0,00 h 0,00 h 177 W/m 22,7 km/h (4 Bft) 96,50 %
01.03.2016 14:00 4,8 C 5,5 C 4,1 C 65 % 0 lf 1014,7 hPa 0,0 l/m 0,00 h 0,00 h 111 W/m 24,0 km/h (4 Bft) 97,00 %
01.03.2016 15:00 4,8 C 4,0 C 2,7 C 71 % 10 lf 1013,5 hPa 0,4 l/m 0,00 h 0,77 h 67 W/m 26,5 km/h (4 Bft) 93,74 %
01.03.2016 16:00 3,8 C 2,8 C 1,7 C 84 % 15 lf 1012,1 hPa 0,4 l/m 0,00 h 1,00 h 38 W/m 25,5 km/h (4 Bft) 96,84 %
01.03.2016 17:00 3,5 C 2,8 C 1,7 C 89 % 15 lf 1011,1 hPa 1,2 l/m 0,00 h 1,00 h 9 W/m 19,1 km/h (3 Bft) 95,23 %
01.03.2016 18:00 3,2 C 2,8 C 1,7 C 93 % 15 lf 1010,0 hPa 1,0 l/m 0,00 h 1,00 h 0 W/m 16,4 km/h (3 Bft) 97,60 %
01.03.2016 19:00 3,5 C 3,6 C 2,3 C 95 % 15 lf 1009,5 hPa 1,0 l/m 0,00 h 0,40 h 0 W/m 18,7 km/h (3 Bft) 95,94 %
01.03.2016 20:00 4,1 C 4,0 C 2,8 C 96 % 15 lf 1008,7 hPa 0,2 l/m 0,00 h 0,03 h 0 W/m 24,1 km/h (4 Bft) 92,66 %
01.03.2016 21:00 4,4 C 4,4 C 3,1 C 97 % 15 lf 1007,9 hPa 0,2 l/m 0,00 h 0,07 h 0 W/m 23,8 km/h (4 Bft) 98,43 %
01.03.2016 22:00 4,9 C 5,0 C 3,6 C 97 % 15 lf 1007,0 hPa 0,0 l/m 0,00 h 0,00 h 0 W/m 23,8 km/h (4 Bft) 96,52 %
01.03.2016 23:00 5,4 C 5,5 C 4,0 C 97 % 15 lf 1006,0 hPa 0,0 l/m 0,00 h 0,00 h 0 W/m 21,9 km/h (4 Bft) 95,09 %
02.03.2016 00:00 5,9 C 5,9 C 4,4 C 98 % 15 lf 1005,2 hPa 0,0 l/m 0,00 h 0,00 h 0 W/m 22,2 km/h (4 Bft) 95,64 %
02.03.2016 01:00 6,3 C 6,2 C 4,8 C 98 % 15 lf 1004,3 hPa 0,2 l/m 0,00 h 0,27 h 0 W/m 18,9 km/h (3 Bft) 96,73 %
02.03.2016 02:00 6,6 C 6,7 C 5,1 C 98 % 15 lf 1003,1 hPa 0,0 l/m 0,00 h 0,03 h 0 W/m 21,9 km/h (4 Bft) 95,44 %
02.03.2016 03:00 6,9 C 6,8 C 5,3 C 98 % 15 lf 1002,0 hPa 0,0 l/m 0,00 h 0,00 h 0 W/m 28,5 km/h (4 Bft) 98,22 %
02.03.2016 04:00 7,3 C 6,9 C 5,5 C 97 % 15 lf 1001,0 hPa 0,0 l/m 0,00 h 0,55 h 0 W/m 28,5 km/h (4 Bft) 93,27 %
02.03.2016 05:00 7,3 C 6,9 C 5,0 C 93 % 9 lf 1000,4 hPa 0,2 l/m 0,00 h 0,37 h 0 W/m 24,3 km/h (4 Bft) 96,08 %
02.03.2016 06:00 7,2 C 6,7 C 5,0 C 93 % 15 lf 999,8 hPa 1,0 l/m 0,00 h 0,77 h 0 W/m 25,4 km/h (4 Bft) 98,22 %
02.03.2016 07:00 6,8 C 6,7 C 5,0 C 95 % 15 lf 999,1 hPa 0,0 l/m 0,00 h 0,00 h 10 W/m 26,4 km/h (4 Bft) 95,11 %
02.03.2016 08:00 6,8 C 6,7 C 5,0 C 93 % 15 lf 998,2 hPa 0,0 l/m 0,00 h 0,00 h 37 W/m 27,3 km/h (4 Bft) 95,43 %
02.03.2016 09:00 7,2 C 6,9 C 5,0 C 89 % 12 lf 997,7 hPa 1,0 l/m 0,00 h 0,93 h 67 W/m 35,9 km/h (5 Bft) 95,93 %
02.03.2016 10:00 4,8 C 4,5 C 3,2 C 91 % 15 lf 998,9 hPa 0,2 l/m 0,13 h 0,77 h 111 W/m 27,7 km/h (4 Bft) 96,66 %
02.03.2016 11:00 5,3 C 8,4 C 5,3 C 93 % 11 lf 999,1 hPa 0,0 l/m 0,67 h 0,20 h 345 W/m 26,7 km/h (4 Bft) 96,29 %
02.03.2016 12:00 7,3 C 13,1 C 5,7 C 83 % 0 lf 998,7 hPa 0,0 l/m 0,80 h 0,00 h 538 W/m 32,0 km/h (5 Bft) 95,29 %
02.03.2016 13:00 8,1 C 13,4 C 5,5 C 74 % 0 lf 997,8 hPa 0,0 l/m 0,63 h 0,00 h 410 W/m 29,4 km/h (5 Bft) 96,48 %
02.03.2016 14:00 9,3 C 15,1 C 7,6 C 64 % 0 lf 996,9 hPa 0,0 l/m 0,93 h 0,00 h 493 W/m 36,2 km/h (5 Bft) 95,46 %
02.03.2016 15:00 9,0 C 11,6 C 7,6 C 62 % 0 lf 996,2 hPa 0,0 l/m 0,57 h 0,00 h 230 W/m 23,5 km/h (4 Bft) 96,60 %
02.03.2016 16:00 8,4 C 8,2 C 6,4 C 65 % 4 lf 995,6 hPa 0,0 l/m 0,00 h 0,23 h 65 W/m 25,1 km/h (4 Bft) 95,90 %
02.03.2016 17:00 6,7 C 6,2 C 4,3 C 79 % 8 lf 995,0 hPa 0,2 l/m 0,20 h 0,00 h 48 W/m 14,9 km/h (3 Bft) 96,49 %
02.03.2016 18:00 6,0 C 5,7 C 4,1 C 80 % 4 lf 994,8 hPa 0,2 l/m 0,00 h 0,30 h 7 W/m 27,3 km/h (4 Bft) 93,69 %
02.03.2016 19:00 4,0 C 3,3 C 2,0 C 89 % 15 lf 995,7 hPa 0,4 l/m 0,00 h 0,27 h 0 W/m 26,9 km/h (4 Bft) 98,01 %
02.03.2016 20:00 3,5 C 3,3 C 2,0 C 92 % 15 lf 995,5 hPa 0,0 l/m 0,00 h 0,00 h 0 W/m 24,9 km/h (4 Bft) 95,36 %
02.03.2016 21:00 3,8 C 3,5 C 2,2 C 89 % 2 lf 995,3 hPa 0,0 l/m 0,00 h 0,00 h 0 W/m 26,5 km/h (4 Bft) 96,87 %
02.03.2016 22:00 4,1 C 4,2 C 2,2 C 87 % 0 lf 995,4 hPa 0,0 l/m 0,00 h 0,00 h 0 W/m 31,4 km/h (5 Bft) 96,57 %
02.03.2016 23:00 3,7 C 3,3 C 1,9 C 88 % 13 lf 995,8 hPa 0,2 l/m 0,00 h 0,73 h 0 W/m 30,0 km/h (5 Bft) 92,33 %
03.03.2016 00:00 3,0 C 2,7 C 1,6 C 92 % 15 lf 996,2 hPa 0,2 l/m 0,00 h 0,43 h 0 W/m 27,1 km/h (4 Bft) 98,03 %
03.03.2016 01:00 2,8 C 2,7 C 1,6 C 94 % 15 lf 996,3 hPa 0,2 l/m 0,00 h 0,77 h 0 W/m 28,0 km/h (4 Bft) 97,36 %
03.03.2016 02:00 2,8 C 2,6 C 1,3 C 94 % 15 lf 996,4 hPa 0,0 l/m 0,00 h 0,13 h 0 W/m 22,7 km/h (4 Bft) 94,66 %
03.03.2016 03:00 2,4 C 1,9 C 0,6 C 93 % 15 lf 996,5 hPa 0,0 l/m 0,00 h 0,00 h 0 W/m 16,8 km/h (3 Bft) 95,02 %
03.03.2016 04:00 1,9 C 1,7 C 0,3 C 93 % 14 lf 996,9 hPa 0,0 l/m 0,00 h 0,03 h 0 W/m 15,1 km/h (3 Bft) 96,50 %
03.03.2016 05:00 2,0 C 2,3 C 0,6 C 93 % 8 lf 997,2 hPa 0,0 l/m 0,00 h 0,00 h 0 W/m 16,3 km/h (3 Bft) 96,27 %
03.03.2016 06:00 2,2 C 2,6 C 0,6 C 93 % 0 lf 997,3 hPa 0,0 l/m 0,00 h 0,00 h 0 W/m 10,1 km/h (2 Bft) 97,08 %
03.03.2016 07:00 2,2 C 2,3 C 0,6 C 92 % 0 lf 997,6 hPa 0,0 l/m 0,00 h 0,23 h 10 W/m 9,8 km/h (2 Bft) 95,51 %
03.03.2016 08:00 2,2 C 2,2 C 1,0 C 92 % 8 lf 997,8 hPa 0,2 l/m 0,00 h 1,00 h 41 W/m 14,7 km/h (3 Bft) 93,85 %
03.03.2016 09:00 2,4 C 2,5 C 1,5 C 94 % 11 lf 998,3 hPa 0,2 l/m 0,00 h 1,00 h 81 W/m 13,3 km/h (3 Bft) 96,03 %
03.03.2016 10:00 2,9 C 3,3 C 2,2 C 95 % 12 lf 999,0 hPa 0,2 l/m 0,00 h 0,30 h 84 W/m 8,6 km/h (2 Bft) 97,85 %
03.03.2016 11:00 3,4 C 5,0 C 2,8 C 95 % 1 lf 999,9 hPa 0,0 l/m 0,00 h 0,00 h 112 W/m 6,2 km/h (2 Bft) 95,65 %
03.03.2016 12:00 4,9 C 10,6 C 4,2 C 94 % 0 lf 1000,5 hPa 0,0 l/m 0,67 h 0,00 h 369 W/m 9,8 km/h (2 Bft) 94,38 %
03.03.2016 13:00 6,3 C 12,2 C 5,6 C 85 % 0 lf 1001,0 hPa 0,0 l/m 0,40 h 0,00 h 309 W/m 12,4 km/h (3 Bft) 98,41 %
03.03.2016 14:00 6,7 C 9,3 C 6,2 C 79 % 0 lf 1001,7 hPa 0,0 l/m 0,13 h 0,00 h 203 W/m 13,5 km/h (3 Bft) 94,94 %
03.03.2016 15:00 7,2 C 10,1 C 6,0 C 77 % 0 lf 1002,3 hPa 0,0 l/m 0,40 h 0,00 h 186 W/m 12,4 km/h (3 Bft) 95,38 %
03.03.2016 16:00 7,2 C 11,0 C 5,1 C 78 % 0 lf 1002,8 hPa 0,0 l/m 0,50 h 0,00 h 137 W/m 6,9 km/h (2 Bft) 97,83 %
03.03.2016 17:00 6,8 C 7,4 C 5,1 C 77 % 0 lf 1003,5 hPa 0,0 l/m 0,63 h 0,03 h 81 W/m 12,8 km/h (3 Bft) 95,58 %
03.03.2016 18:00 5,7 C 3,7 C 1,9 C 75 % 0 lf 1004,3 hPa 0,0 l/m 0,00 h 0,00 h 9 W/m 4,3 km/h (1 Bft) 94,64 %
03.03.2016 19:00 3,6 C 1,9 C 0,0 C 80 % 0 lf 1004,8 hPa 0,0 l/m 0,00 h 0,00 h 0 W/m 5,2 km/h (1 Bft) 97,08 %
03.03.2016 20:00 2,2 C 1,3 C -0,7 C 85 % 0 lf 1004,9 hPa 0,0 l/m 0,00 h 0,00 h 0 W/m 5,0 km/h (1 Bft) 95,12 %
03.03.2016 21:00 1,3 C 0,5 C -1,1 C 88 % 1 lf 1005,3 hPa 0,0 l/m 0,00 h 0,00 h 0 W/m 5,1 km/h (1 Bft) 96,44 %
03.03.2016 22:00 0,8 C 0,4 C -1,7 C 90 % 3 lf 1005,2 hPa 0,0 l/m 0,00 h 0,00 h 0 W/m 4,7 km/h (1 Bft) 97,02 %
03.03.2016 23:00 0,5 C 0,2 C -1,7 C 92 % 8 lf 1004,8 hPa 0,0 l/m 0,00 h 0,00 h 0 W/m 6,4 km/h (2 Bft) 93,92 %
04.03.2016 00:00 0,3 C 0,4 C -1,4 C 93 % 14 lf 1004,5 hPa 0,0 l/m 0,00 h 0,00 h 0 W/m 7,5 km/h (2 Bft) 95,64 %
04.03.2016 01:00 0,8 C 1,1 C -0,5 C 95 % 14 lf 1004,1 hPa 0,0 l/m 0,00 h 0,00 h 0 W/m 9,2 km/h (2 Bft) 97,30 %
04.03.2016 02:00 0,6 C 0,7 C -0,7 C 95 % 12 lf 1003,5 hPa 0,0 l/m 0,00 h 0,00 h 0 W/m 10,8 km/h (2 Bft) 95,89 %
04.03.2016 03:00 0,3 C 0,5 C -0,9 C 95 % 10 lf 1002,7 hPa 0,0 l/m 0,00 h 0,00 h 0 W/m 13,3 km/h (3 Bft) 95,09 %
04.03.2016 04:00 0,4 C 0,8 C -0,6 C 95 % 5 lf 1001,5 hPa 0,0 l/m 0,00 h 0,00 h 0 W/m 18,1 km/h (3 Bft) 95,73 %
04.03.2016 05:00 0,9 C 1,4 C -0,0 C 95 % 0 lf 1000,3 hPa 0,0 l/m 0,00 h 0,00 h 0 W/m 22,5 km/h (4 Bft) 96,93 %
04.03.2016 06:00 1,2 C 1,7 C 0,2 C 93 % 0 lf 999,2 hPa 0,0 l/m 0,00 h 0,00 h 0 W/m 29,4 km/h (5 Bft) 95,30 %
04.03.2016 07:00 1,3 C 1,8 C 0,6 C 92 % 0 lf 998,0 hPa 0,0 l/m 0,00 h 0,10 h 13 W/m 27,9 km/h (4 Bft) 95,94 %
04.03.2016 08:00 1,3 C 0,7 C -0,4 C 92 % 12 lf 996,8 hPa 0,6 l/m 0,00 h 1,00 h 27 W/m 33,1 km/h (5 Bft) 94,88 %
04.03.2016 09:00 1,6 C 1,6 C 0,4 C 94 % 14 lf 995,4 hPa 0,4 l/m 0,00 h 1,00 h 43 W/m 35,4 km/h (5 Bft) 94,45 %
04.03.2016 10:00 1,9 C 1,6 C 0,6 C 93 % 10 lf 994,2 hPa 0,8 l/m 0,00 h 1,00 h 63 W/m 37,3 km/h (5 Bft) 97,93 %
04.03.2016 11:00 1,9 C 1,7 C 0,6 C 94 % 14 lf 993,5 hPa 1,0 l/m 0,00 h 1,00 h 63 W/m 36,6 km/h (5 Bft) 94,66 %
04.03.2016 12:00 1,6 C 1,2 C 0,0 C 95 % 15 lf 993,1 hPa 1,8 l/m 0,00 h 1,00 h 44 W/m 34,0 km/h (5 Bft) 94,81 %
04.03.2016 13:00 0,6 C 0,0 C -1,1 C 95 % 15 lf 992,3 hPa 0,8 l/m 0,00 h 1,00 h 37 W/m 26,4 km/h (4 Bft) 97,15 %
04.03.2016 14:00 0,5 C 0,2 C -1,0 C 96 % 15 lf 991,9 hPa 1,2 l/m 0,00 h 1,00 h 54 W/m 24,0 km/h (4 Bft) 94,56 %
04.03.2016 15:00 1,2 C 1,8 C 0,3 C 97 % 15 lf 991,5 hPa 1,8 l/m 0,03 h 0,97 h 118 W/m 24,5 km/h (4 Bft) 96,95 %
04.03.2016 16:00 2,1 C 2,2 C 1,0 C 97 % 15 lf 991,6 hPa 0,6 l/m 0,00 h 0,00 h 34 W/m 22,6 km/h (4 Bft) 95,94 %
04.03.2016 17:00 2,5 C 2,8 C 1,1 C 97 % 12 lf 992,1 hPa 0,4 l/m 0,00 h 0,00 h 14 W/m 18,6 km/h (3 Bft) 95,15 %
04.03.2016 18:00 2,7 C 2,8 C 1,3 C 97 % 11 lf 992,7 hPa 0,0 l/m 0,00 h 0,00 h 5 W/m 10,8 km/h (2 Bft) 96,79 %
04.03.2016 19:00 2,7 C 2,8 C 1,1 C 97 % 12 lf 993,1 hPa 0,0 l/m 0,00 h 0,00 h 0 W/m 7,9 km/h (2 Bft) 96,77 %
04.03.2016 20:00 2,4 C 2,2 C 0,8 C 97 % 13 lf 993,3 hPa 0,0 l/m 0,00 h 0,00 h 0 W/m 7,9 km/h (2 Bft) 96,52 %
04.03.2016 21:00 2,3 C 2,2 C 1,1 C 97 % 14 lf 993,5 hPa 0,0 l/m 0,00 h 0,00 h 0 W/m 6,3 km/h (2 Bft) 94,72 %
04.03.2016 22:00 2,2 C 2,2 C 0,7 C 97 % 14 lf 993,7 hPa 0,0 l/m 0,00 h 0,00 h 0 W/m 3,6 km/h (1 Bft) 95,87 %
04.03.2016 23:00 2,0 C 1,6 C 0,0 C 97 % 15 lf 993,7 hPa 0,0 l/m 0,00 h 0,00 h 0 W/m 3,2 km/h (1 Bft) 97,80 %
05.03.2016 00:00 1,5 C 1,5 C 0,3 C 97 % 15 lf 994,0 hPa 0,0 l/m 0,00 h 0,00 h 0 W/m 0,7 km/h (0 Bft) 94,74 %
05.03.2016 01:00 1,4 C 0,6 C -0,5 C 97 % 15 lf 993,9 hPa 0,0 l/m 0,00 h 0,00 h 0 W/m 0,1 km/h (0 Bft) 95,67 %
05.03.2016 02:00 0,6 C -0,4 C -1,5 C 97 % 15 lf 993,7 hPa 0,0 l/m 0,00 h 0,00 h 0 W/m 0,1 km/h (0 Bft) 97,10 %
05.03.2016 03:00 0,1 C -0,6 C -1,2 C 97 % 15 lf 993,5 hPa 0,0 l/m 0,00 h 0,00 h 0 W/m 0,1 km/h (0 Bft) 94,46 %
05.03.2016 04:00 -0,1 C -0,2 C -1,1 C 97 % 15 lf 993,5 hPa 0,0 l/m 0,00 h 0,00 h 0 W/m 0,0 km/h (0 Bft) 98,75 %
05.03.2016 05:00 -0,2 C -0,6 C -1,1 C 97 % 15 lf 993,8 hPa 0,0 l/m 0,00 h 0,00 h 0 W/m 2,2 km/h (1 Bft) 95,23 %
05.03.2016 06:00 -0,3 C -0,1 C -1,1 C 97 % 15 lf 993,9 hPa 0,0 l/m 0,00 h 0,00 h 0 W/m 2,1 km/h (1 Bft) 94,95 %
05.03.2016 07:00 -0,1 C 0,2 C -0,8 C 97 % 15 lf 994,0 hPa 0,0 l/m 0,00 h 0,00 h 10 W/m 4,6 km/h (1 Bft) 97,93 %
05.03.2016 08:00 0,6 C 1,2 C 0,0 C 97 % 15 lf 994,1 hPa 0,0 l/m 0,00 h 0,00 h 47 W/m 6,8 km/h (2 Bft) 96,01 %
05.03.2016 09:00 1,5 C 2,7 C 1,1 C 98 % 15 lf 994,5 hPa 0,0 l/m 0,03 h 0,00 h 79 W/m 5,3 km/h (1 Bft) 95,58 %
05.03.2016 10:00 2,2 C 3,8 C 2,0 C 98 % 14 lf 994,7 hPa 0,0 l/m 0,00 h 0,00 h 146 W/m 5,3 km/h (1 Bft) 94,95 %
05.03.2016 11:00 3,1 C 5,4 C 3,5 C 98 % 1 lf 995,0 hPa 0,0 l/m 0,00 h 0,00 h 177 W/m 5,3 km/h (1 Bft) 96,85 %
05.03.2016 12:00 4,1 C 9,3 C 5,0 C 98 % 0 lf 995,3 hPa 0,0 l/m 0,60 h 0,00 h 295 W/m 6,0 km/h (2 Bft) 96,12 %
05.03.2016 13:00 5,6 C 10,2 C 5,8 C 98 % 0 lf 994,9 hPa 0,0 l/m 0,37 h 0,00 h 235 W/m 7,3 km/h (2 Bft) 95,62 %
05.03.2016 14:00 5,7 C 6,9 C 4,6 C 94 % 7 lf 995,2 hPa 0,2 l/m 0,00 h 0,63 h 107 W/m 6,6 km/h (2 Bft) 95,28 %
05.03.2016 15:00 5,4 C 5,8 C 3,3 C 88 % 15 lf 995,4 hPa 0,0 l/m 0,00 h 0,93 h 65 W/m 5,5 km/h (1 Bft) 96,86 %
05.03.2016 16:00 5,2 C 5,0 C 3,0 C 87 % 15 lf 995,7 hPa 0,2 l/m 0,00 h 0,13 h 23 W/m 2,3 km/h (1 Bft) 96,01 %
05.03.2016 17:00 4,8 C 4,1 C 2,6 C 89 % 15 lf 996,1 hPa 0,2 l/m 0,00 h 0,70 h 25 W/m 4,7 km/h (1 Bft) 96,30 %
05.03.2016 18:00 4,3 C 3,4 C 2,2 C 90 % 15 lf 996,5 hPa 0,0 l/m 0,00 h 0,00 h 6 W/m 3,3 km/h (1 Bft) 93,59 %
05.03.2016 19:00 3,8 C 3,3 C 2,1 C 92 % 15 lf 996,9 hPa 0,0 l/m 0,00 h 0,20 h 0 W/m 3,6 km/h (1 Bft) 97,23 %
05.03.2016 20:00 3,4 C 3,0 C 1,7 C 92 % 15 lf 997,2 hPa 0,0 l/m 0,00 h 0,27 h 0 W/m 1,8 km/h (1 Bft) 98,01 %
05.03.2016 21:00 3,0 C 2,3 C 0,8 C 93 % 15 lf 997,4 hPa 0,0 l/m 0,00 h 0,00 h 0 W/m 1,8 km/h (1 Bft) 94,67 %
05.03.2016 22:00 2,0 C 0,4 C -0,8 C 93 % 15 lf 997,8 hPa 0,0 l/m 0,00 h 0,00 h 0 W/m 2,2 km/h (1 Bft) 95,30 %
05.03.2016 23:00 0,8 C -0,9 C -1,9 C 92 % 15 lf 997,9 hPa 0,0 l/m 0,00 h 0,00 h 0 W/m 0,3 km/h (0 Bft) 96,43 %
06.03.2016 00:00 -0,3 C -1,3 C -2,1 C 92 % 15 lf 997,8 hPa 0,0 l/m 0,00 h 0,00 h 0 W/m 2,3 km/h (1 Bft) 95,66 %
06.03.2016 01:00 -0,7 C -1,3 C -2,2 C 93 % 15 lf 998,0 hPa 0,0 l/m 0,00 h 0,00 h 0 W/m 2,1 km/h (1 Bft) 97,22 %
06.03.2016 02:00 -0,7 C -1,2 C -2,4 C 94 % 15 lf 998,1 hPa 0,0 l/m 0,00 h 0,03 h 0 W/m 3,2 km/h (1 Bft) 95,59 %
06.03.2016 03:00 -1,1 C -1,7 C -2,8 C 95 % 15 lf 998,0 hPa 0,0 l/m 0,00 h 0,03 h 0 W/m 2,7 km/h (1 Bft) 94,93 %
06.03.2016 04:00 -1,6 C -2,3 C -3,2 C 95 % 4 lf 998,0 hPa 0,0 l/m 0,00 h 0,00 h 0 W/m 1,7 km/h (1 Bft) 96,56 %
06.03.2016 05:00 -1,8 C -2,1 C -3,3 C 95 % 1 lf 998,2 hPa 0,0 l/m 0,00 h 0,13 h 0 W/m 2,0 km/h (1 Bft) 96,65 %
06.03.2016 06:00 -2,2 C -2,6 C -3,6 C 96 % 1 lf 998,1 hPa 0,0 l/m 0,00 h 0,07 h 0 W/m 0,8 km/h (0 Bft) 97,51 %
06.03.2016 07:00 -1,6 C -0,7 C -2,0 C 96 % 6 lf 998,4 hPa 0,0 l/m 0,00 h 0,00 h 14 W/m 3,6 km/h (1 Bft) 93,47 %
06.03.2016 08:00 -0,4 C 0,8 C -1,1 C 97 % 15 lf 998,6 hPa 0,0 l/m 0,50 h 0,00 h 107 W/m 3,7 km/h (1 Bft) 97,65 %
06.03.2016 09:00 1,8 C 5,8 C 3,2 C 98 % 15 lf 998,7 hPa 0,2 l/m 1,00 h 0,00 h 321 W/m 9,4 km/h (2 Bft) 95,93 %
06.03.2016 10:00 3,2 C 6,2 C 3,6 C 97 % 15 lf 998,8 hPa 0,0 l/m 0,30 h 0,00 h 239 W/m 12,8 km/h (3 Bft) 95,87 %
06.03.2016 11:00 4,1 C 7,0 C 4,3 C 93 % 1 lf 999,0 hPa 0,0 l/m 0,53 h 0,00 h 285 W/m 11,5 km/h (2 Bft) 96,37 %
06.03.2016 12:00 4,9 C 6,2 C 4,2 C 88 % 0 lf 999,1 hPa 0,0 l/m 0,00 h 0,00 h 141 W/m 7,0 km/h (2 Bft) 96,15 %
06.03.2016 13:00 5,2 C 7,6 C 5,4 C 87 % 0 lf 998,9 hPa 0,0 l/m 0,00 h 0,00 h 211 W/m 8,8 km/h (2 Bft) 95,87 %
06.03.2016 14:00 5,6 C 8,7 C 6,0 C 86 % 0 lf 998,8 hPa 0,0 l/m 0,47 h 0,00 h 246 W/m 8,7 km/h (2 Bft) 96,23 %
06.03.2016 15:00 5,9 C 9,0 C 5,6 C 84 % 0 lf 998,9 hPa 0,0 l/m 0,60 h 0,00 h 213 W/m 8,8 km/h (2 Bft) 94,18 %
06.03.2016 16:00 6,1 C 10,2 C 5,5 C 80 % 0 lf 999,0 hPa 0,0 l/m 1,00 h 0,00 h 229 W/m 11,9 km/h (2 Bft) 96,80 %
06.03.2016 17:00 6,0 C 6,8 C 4,4 C 78 % 0 lf 999,2 hPa 0,0 l/m 0,57 h 0,00 h 79 W/m 8,9 km/h (2 Bft) 96,65 %
06.03.2016 18:00 4,7 C 2,5 C 0,9 C 79 % 0 lf 999,8 hPa 0,0 l/m 0,07 h 0,00 h 12 W/m 1,1 km/h (0 Bft) 94,25 %
06.03.2016 19:00 2,8 C 0,9 C -0,3 C 84 % 1 lf 1000,3 hPa 0,0 l/m 0,00 h 0,00 h 0 W/m 3,2 km/h (1 Bft) 96,30 %
06.03.2016 20:00 1,8 C 1,3 C -0,1 C 87 % 1 lf 1000,7 hPa 0,0 l/m 0,00 h 0,00 h 0 W/m 7,4 km/h (2 Bft) 98,43 %
06.03.2016 21:00 2,0 C 2,1 C 1,0 C 91 % 3 lf 1001,3 hPa 0,2 l/m 0,00 h 0,23 h 0 W/m 7,5 km/h (2 Bft) 94,66 %
06.03.2016 22:00 2,2 C 1,6 C 0,5 C 93 % 15 lf 1001,7 hPa 1,6 l/m 0,00 h 0,97 h 0 W/m 8,2 km/h (2 Bft) 96,08 %
06.03.2016 23:00 1,8 C 1,7 C 0,6 C 93 % 15 lf 1001,7 hPa 0,0 l/m 0,00 h 0,63 h 0 W/m 3,4 km/h (1 Bft) 94,94 %
Min-Datum _ 01.03.16 01.03.16 01.03.16 29.02.16 29.02.16 04.03.16 - - - - 29.02.16 01.03.16
_ Min-Zeit 05:46 05:24 04:00 13:56 00:00 15:14 - - - - 21:32 00:02
Minimum _ -5,1 C -6,1 C -6,1 C 53 % 0 lf 991,4 hPa - - - - 0,0 km/h (0 Bft) 14,29 %
Max-Datum _ 02.03.16 03.03.16 29.02.16 05.03.16 01.03.16 29.02.16 04.03.16 29.02.16 01.03.16 02.03.16 02.03.16 29.02.16
_ Max-Zeit 14:10 13:14 12:02 12:36 09:16 21:42 12:00 08:00 15:14 12:44 18:46 00:18
Maximum _ 9,5 C 20,0 C 7,8 C 99 % 15 lf 1023,6 hPa 1,8 l/m 0,03 h 0,03 h 773 W/m 64,9 km/h
S (8 Bft)
100,00 %
Durchschnitt _ 2,6 C 3,3 C 1,3 C 88 % 7 lf 1003,9 hPa #21,0 l/m #25:31 h #26:43 h 151 W/m 13,8 km/h (3 Bft) 95,94 %
© 2016 W. Hausmann